Time;durP1;ratioP1;P1;durP2;ratioP2;P2;SDS_P1;SDS_P2;PMS_P1;PMS_P2;Temp;Humidity;BMP_temperature;BMP_pressure;BME280_temperature;BME280_humidity;BME280_pressure;Samples;Min_cycle;Max_cycle;Signal;HPM_P1;HPM_P2
2024/01/26 00:02:09;;;;;;;11.75;9.90;;;10.70;99.90;;;;;;5100861;28;20038;-38
2024/01/26 00:04:35;;;;;;;11.27;9.32;;;10.70;99.90;;;;;;5102491;28;20040;-37
2024/01/26 00:07:00;;;;;;;12.35;9.40;;;10.70;99.90;;;;;;5100793;28;20024;-37
2024/01/26 00:09:26;;;;;;;11.02;9.30;;;10.70;99.90;;;;;;5102555;28;20509;-35
2024/01/26 00:11:52;;;;;;;11.75;9.88;;;10.70;99.90;;;;;;5102357;28;20076;-35
2024/01/26 00:14:17;;;;;;;11.60;9.60;;;10.70;99.90;;;;;;5101102;28;20052;-36
2024/01/26 00:16:43;;;;;;;12.85;9.98;;;10.70;99.90;;;;;;5102035;28;20382;-36
2024/01/26 00:19:09;;;;;;;11.80;9.63;;;10.80;99.90;;;;;;5102436;28;20664;-37
2024/01/26 00:21:36;;;;;;;10.35;9.00;;;10.70;99.90;;;;;;5101600;28;20467;-35
2024/01/26 00:24:02;;;;;;;12.68;10.20;;;10.80;99.90;;;;;;5102815;28;20031;-37
2024/01/26 00:26:28;;;;;;;11.73;9.80;;;10.80;99.90;;;;;;5101622;28;20076;-35
2024/01/26 00:28:53;;;;;;;12.00;10.00;;;10.80;99.90;;;;;;5101982;28;20024;-34
2024/01/26 00:31:19;;;;;;;11.23;9.93;;;10.80;99.90;;;;;;5101581;28;20032;-34
2024/01/26 00:33:45;;;;;;;11.55;10.07;;;10.80;99.90;;;;;;5101229;28;20494;-33
2024/01/26 00:36:12;;;;;;;12.43;9.63;;;10.80;99.90;;;;;;5101624;28;20020;-32
2024/01/26 00:38:41;;;;;;;14.20;10.20;;;10.80;99.90;;;;;;5101256;28;20725;-37
2024/01/26 00:41:07;;;;;;;12.27;9.90;;;10.80;99.90;;;;;;5101384;28;20020;-36
2024/01/26 00:43:33;;;;;;;11.43;10.07;;;10.80;99.90;;;;;;5101058;28;20049;-34
2024/01/26 00:45:59;;;;;;;11.32;10.15;;;10.80;99.90;;;;;;5101506;28;20066;-34
2024/01/26 00:48:24;;;;;;;14.80;11.85;;;10.80;99.90;;;;;;5100034;28;20110;-37
2024/01/26 00:50:50;;;;;;;13.60;12.00;;;10.80;99.90;;;;;;5101525;28;20762;-33
2024/01/26 00:53:17;;;;;;;13.25;11.32;;;10.80;99.90;;;;;;5100542;28;20508;-40
2024/01/26 00:55:43;;;;;;;13.35;11.02;;;10.80;99.90;;;;;;5100596;28;20088;-36
2024/01/26 00:58:09;;;;;;;13.05;11.20;;;10.80;99.90;;;;;;5100438;28;20015;-32
2024/01/26 01:00:34;;;;;;;12.45;11.15;;;10.90;99.90;;;;;;5101210;28;20028;-33
2024/01/26 01:03:00;;;;;;;13.45;11.30;;;10.90;99.90;;;;;;5100420;28;20034;-37
2024/01/26 01:05:25;;;;;;;12.77;11.48;;;10.80;99.90;;;;;;5101498;28;20122;-40
2024/01/26 01:07:51;;;;;;;13.38;10.43;;;10.90;99.90;;;;;;5101009;28;20118;-34
2024/01/26 01:10:17;;;;;;;15.38;12.90;;;10.80;99.90;;;;;;5100893;28;20118;-34
2024/01/26 01:12:45;;;;;;;14.75;12.32;;;10.90;99.90;;;;;;5101103;28;20483;-37
2024/01/26 01:15:11;;;;;;;13.15;11.75;;;10.90;99.90;;;;;;5100306;28;20534;-35
2024/01/26 01:17:43;;;;;;;12.98;10.73;;;10.80;99.90;;;;;;5100057;28;20030;-35
2024/01/26 01:20:10;;;;;;;12.10;10.80;;;10.90;99.90;;;;;;5100015;28;20026;-34
2024/01/26 01:22:37;;;;;;;11.05;9.70;;;10.80;99.90;;;;;;5100815;28;20024;-33
2024/01/26 01:25:06;;;;;;;10.57;9.43;;;10.90;99.90;;;;;;5099286;28;20038;-37
2024/01/26 01:27:32;;;;;;;11.52;10.32;;;10.90;99.90;;;;;;5100261;28;20623;-36
2024/01/26 01:29:58;;;;;;;11.88;10.15;;;10.90;99.90;;;;;;5099886;28;20058;-35
2024/01/26 01:32:24;;;;;;;12.25;10.38;;;10.90;99.90;;;;;;5099992;28;20534;-35
2024/01/26 01:34:49;;;;;;;10.18;9.18;;;10.90;99.90;;;;;;5100153;28;20023;-36
2024/01/26 01:37:15;;;;;;;10.30;9.00;;;10.90;99.90;;;;;;5099197;28;20039;-33
2024/01/26 01:39:40;;;;;;;10.80;9.13;;;10.90;99.90;;;;;;5100043;28;20147;-37
2024/01/26 01:42:13;;;;;;;12.85;11.38;;;10.90;99.90;;;;;;5099979;28;20474;-36
2024/01/26 01:44:40;;;;;;;11.65;10.45;;;10.90;99.90;;;;;;5098653;28;20135;-35
2024/01/26 01:47:05;;;;;;;11.40;10.30;;;10.90;99.90;;;;;;5100723;28;20127;-37
2024/01/26 01:49:31;;;;;;;10.85;9.75;;;10.90;99.90;;;;;;5100063;28;20023;-36
2024/01/26 01:51:59;;;;;;;10.65;9.45;;;10.90;99.90;;;;;;5099676;28;20023;-37
2024/01/26 01:54:26;;;;;;;10.00;9.00;;;10.90;99.90;;;;;;5099634;28;20024;-36
2024/01/26 01:56:53;;;;;;;10.35;9.25;;;10.90;99.90;;;;;;5099362;28;20102;-35
2024/01/26 01:59:21;;;;;;;11.77;10.57;;;10.90;99.90;;;;;;5098652;28;20023;-34
2024/01/26 02:01:46;;;;;;;11.35;9.43;;;11.00;99.90;;;;;;5088642;28;20032;-35
2024/01/26 02:04:12;;;;;;;10.18;8.98;;;10.90;99.90;;;;;;5099826;28;20498;-38
2024/01/26 02:06:37;;;;;;;10.10;9.10;;;11.00;99.90;;;;;;5099030;28;20031;-38
2024/01/26 02:09:03;;;;;;;9.57;8.57;;;11.00;99.90;;;;;;5100028;28;20128;-37
2024/01/26 02:11:28;;;;;;;9.88;8.90;;;10.90;99.90;;;;;;5099351;28;20054;-35
2024/01/26 02:13:54;;;;;;;9.18;8.27;;;10.90;99.90;;;;;;5098788;28;20050;-36
2024/01/26 02:16:19;;;;;;;9.65;8.65;;;11.00;99.90;;;;;;5099200;28;20748;-34
2024/01/26 02:18:45;;;;;;;10.30;9.30;;;11.00;99.90;;;;;;5100362;28;20024;-37
2024/01/26 02:21:10;;;;;;;11.15;8.98;;;11.00;99.90;;;;;;5099328;28;20016;-37
2024/01/26 02:23:41;;;;;;;9.82;8.85;;;11.00;99.90;;;;;;5099721;28;20023;-35
2024/01/26 02:26:10;;;;;;;9.30;8.30;;;11.00;99.90;;;;;;5099180;28;20386;-36
2024/01/26 02:28:36;;;;;;;9.38;8.48;;;11.00;99.90;;;;;;5102270;28;20952;-37
2024/01/26 02:31:02;;;;;;;8.93;8.02;;;11.00;99.90;;;;;;5106704;28;20050;-36
2024/01/26 02:33:27;;;;;;;10.35;9.32;;;11.00;99.90;;;;;;5105486;28;20106;-38
2024/01/26 02:35:53;;;;;;;9.55;8.55;;;11.00;99.90;;;;;;5106328;28;20487;-35
2024/01/26 02:38:19;;;;;;;9.98;8.90;;;11.00;99.90;;;;;;5106579;28;20039;-39
2024/01/26 02:40:46;;;;;;;10.10;9.10;;;11.00;99.90;;;;;;5105966;28;20023;-36
2024/01/26 02:43:12;;;;;;;9.57;8.57;;;11.00;99.90;;;;;;5106222;28;20079;-34
2024/01/26 02:45:38;;;;;;;9.65;8.65;;;11.00;99.90;;;;;;5106209;28;20035;-36
2024/01/26 02:48:03;;;;;;;9.63;8.63;;;11.00;99.90;;;;;;5105145;28;20676;-35
2024/01/26 02:50:33;;;;;;;8.35;7.55;;;11.00;99.90;;;;;;5105895;28;20035;-37
2024/01/26 02:52:58;;;;;;;9.90;8.40;;;11.00;99.90;;;;;;5105482;28;20012;-37
2024/01/26 02:55:24;;;;;;;9.10;8.15;;;11.00;99.90;;;;;;5105043;28;20061;-38
2024/01/26 02:57:49;;;;;;;8.18;7.32;;;11.00;99.90;;;;;;5105540;28;20375;-37
2024/01/26 03:00:16;;;;;;;8.07;7.07;;;11.00;99.90;;;;;;5105462;28;20087;-36
2024/01/26 03:02:42;;;;;;;7.63;6.82;;;11.00;99.90;;;;;;5105675;28;20028;-36
2024/01/26 03:05:11;;;;;;;8.15;7.15;;;11.00;99.90;;;;;;5106006;28;20039;-35
2024/01/26 03:07:36;;;;;;;7.32;6.60;;;11.00;99.90;;;;;;5105047;28;20092;-40
2024/01/26 03:10:03;;;;;;;7.90;7.10;;;11.00;99.90;;;;;;5104398;27;20036;-32
2024/01/26 03:12:28;;;;;;;8.85;7.50;;;11.00;99.90;;;;;;5105473;28;20044;-33
2024/01/26 03:14:54;;;;;;;7.20;6.50;;;11.00;99.90;;;;;;5105534;28;20026;-32
2024/01/26 03:17:21;;;;;;;7.63;6.85;;;11.00;99.90;;;;;;5105291;28;20062;-36
2024/01/26 03:19:49;;;;;;;7.22;6.22;;;11.00;99.90;;;;;;5105813;28;20027;-35
2024/01/26 03:22:15;;;;;;;6.63;6.03;;;11.10;99.90;;;;;;5105728;28;20035;-35
2024/01/26 03:24:46;;;;;;;6.60;5.90;;;11.10;99.90;;;;;;5105960;28;20031;-37
2024/01/26 03:27:11;;;;;;;5.72;5.22;;;11.10;99.90;;;;;;5105318;28;20035;-36
2024/01/26 03:29:37;;;;;;;5.60;5.10;;;11.10;99.90;;;;;;5104541;28;20394;-36
2024/01/26 03:32:03;;;;;;;6.10;5.50;;;11.10;99.90;;;;;;5105770;28;20024;-36
2024/01/26 03:34:28;;;;;;;5.47;4.97;;;11.10;99.90;;;;;;5105241;28;20134;-40
2024/01/26 03:36:54;;;;;;;6.13;5.53;;;11.10;99.90;;;;;;5106241;28;20106;-37
2024/01/26 03:39:19;;;;;;;5.05;4.65;;;11.10;99.90;;;;;;5104994;28;20020;-36
2024/01/26 03:41:45;;;;;;;5.25;4.75;;;11.10;99.90;;;;;;5101920;28;20023;-33
2024/01/26 03:44:11;;;;;;;5.30;4.80;;;11.10;99.90;;;;;;5101945;28;20026;-35
2024/01/26 03:46:41;;;;;;;5.93;5.10;;;11.10;99.90;;;;;;5101969;28;20027;-32
2024/01/26 03:49:09;;;;;;;5.47;4.50;;;11.20;99.90;;;;;;5101860;28;20046;-33
2024/01/26 03:51:35;;;;;;;5.55;3.75;;;11.20;99.90;;;;;;5101392;28;20027;-33
2024/01/26 03:54:01;;;;;;;4.38;3.97;;;11.20;99.90;;;;;;5101286;28;20487;-35
2024/01/26 03:56:26;;;;;;;5.45;4.05;;;11.20;99.90;;;;;;5101991;28;20172;-34
2024/01/26 03:58:53;;;;;;;4.50;4.10;;;11.20;99.90;;;;;;5100739;28;20107;-31
2024/01/26 04:01:19;;;;;;;4.30;3.90;;;11.20;99.90;;;;;;5101569;28;20024;-37
2024/01/26 04:03:45;;;;;;;4.18;3.78;;;11.20;99.90;;;;;;5102450;28;20019;-36
2024/01/26 04:06:10;;;;;;;4.25;3.85;;;11.20;99.90;;;;;;5101358;28;20479;-32
2024/01/26 04:08:36;;;;;;;5.07;3.75;;;11.20;99.90;;;;;;5101764;28;20058;-36
2024/01/26 04:11:04;;;;;;;4.20;3.58;;;11.20;99.90;;;;;;5101163;28;20027;-33
2024/01/26 04:13:30;;;;;;;3.80;3.40;;;11.20;99.90;;;;;;5100628;28;20646;-36
2024/01/26 04:15:56;;;;;;;3.50;3.20;;;11.30;99.90;;;;;;5101538;28;20060;-35
2024/01/26 04:18:21;;;;;;;3.60;3.30;;;11.30;99.90;;;;;;5101524;28;20063;-32
2024/01/26 04:20:48;;;;;;;3.35;3.05;;;11.20;99.90;;;;;;5101066;28;20413;-35
2024/01/26 04:23:14;;;;;;;4.25;3.80;;;11.20;99.90;;;;;;5101469;28;20023;-37
2024/01/26 04:25:40;;;;;;;5.50;4.15;;;11.30;99.90;;;;;;5100971;28;20101;-34
2024/01/26 04:28:06;;;;;;;3.72;3.42;;;11.30;99.90;;;;;;5101909;28;20617;-35
2024/01/26 04:30:31;;;;;;;3.70;3.40;;;11.30;99.90;;;;;;5101418;28;20777;-37
2024/01/26 04:32:57;;;;;;;3.45;3.15;;;11.30;99.90;;;;;;5101027;28;20807;-35
2024/01/26 04:35:22;;;;;;;3.95;3.13;;;11.30;99.90;;;;;;5101530;28;20028;-36
2024/01/26 04:37:48;;;;;;;4.63;3.10;;;11.30;99.90;;;;;;5101796;28;20100;-35
2024/01/26 04:40:13;;;;;;;3.50;3.20;;;11.30;99.90;;;;;;5100385;28;20053;-34
2024/01/26 04:42:39;;;;;;;3.72;3.08;;;11.30;99.90;;;;;;5101518;28;20030;-37
2024/01/26 04:45:05;;;;;;;3.72;3.42;;;11.30;99.90;;;;;;5100903;28;20031;-37
2024/01/26 04:47:31;;;;;;;5.50;3.13;;;11.30;99.90;;;;;;5099937;28;20028;-37
2024/01/26 04:49:56;;;;;;;3.50;3.20;;;11.30;99.90;;;;;;5100838;28;20678;-35
2024/01/26 04:52:22;;;;;;;3.80;3.20;;;11.30;99.90;;;;;;5100105;28;20023;-37
2024/01/26 04:54:48;;;;;;;3.78;3.15;;;11.30;99.90;;;;;;5100221;28;20101;-38
2024/01/26 04:57:16;;;;;;;3.25;2.95;;;11.40;99.90;;;;;;5100294;28;20015;-36
2024/01/26 04:59:42;;;;;;;4.15;3.17;;;11.40;99.90;;;;;;5100321;28;20028;-37
2024/01/26 05:02:07;;;;;;;4.28;3.10;;;11.40;99.90;;;;;;5099304;28;20760;-36
2024/01/26 05:04:33;;;;;;;3.30;3.00;;;11.40;99.90;;;;;;5100242;28;20111;-33
2024/01/26 05:06:59;;;;;;;3.50;3.20;;;11.40;99.90;;;;;;5100400;28;20022;-37
2024/01/26 05:09:25;;;;;;;3.88;3.33;;;11.40;99.90;;;;;;5100136;28;20058;-36
2024/01/26 05:11:51;;;;;;;4.28;3.85;;;11.40;99.90;;;;;;5100538;28;20043;-37
2024/01/26 05:14:18;;;;;;;4.90;3.85;;;11.40;99.90;;;;;;5100759;28;20059;-36
2024/01/26 05:16:43;;;;;;;4.80;4.30;;;11.40;99.90;;;;;;5100385;28;20027;-38
2024/01/26 05:19:09;;;;;;;4.50;3.78;;;11.40;99.90;;;;;;5100910;28;20023;-38
2024/01/26 05:21:34;;;;;;;5.03;4.30;;;11.40;99.90;;;;;;5101001;28;20024;-38
2024/01/26 05:24:00;;;;;;;4.60;4.10;;;11.40;99.90;;;;;;5100710;28;20528;-32
2024/01/26 05:26:28;;;;;;;5.70;4.43;;;11.40;99.90;;;;;;5100516;28;20037;-37
2024/01/26 05:28:54;;;;;;;4.60;3.80;;;11.40;99.90;;;;;;5100291;28;20030;-36
2024/01/26 05:31:19;;;;;;;4.78;4.30;;;11.40;99.90;;;;;;5100614;28;20036;-37
2024/01/26 05:33:45;;;;;;;5.00;4.35;;;11.40;99.90;;;;;;5100420;28;20024;-34
2024/01/26 05:36:10;;;;;;;3.92;3.60;;;11.40;99.90;;;;;;5099605;28;20102;-35
2024/01/26 05:38:36;;;;;;;4.93;4.10;;;11.40;99.90;;;;;;5100888;28;20035;-38
2024/01/26 05:41:02;;;;;;;6.00;4.28;;;11.50;99.90;;;;;;5100934;28;20874;-35
2024/01/26 05:43:27;;;;;;;4.57;4.18;;;11.50;99.90;;;;;;5099254;28;20218;-38
2024/01/26 05:45:53;;;;;;;3.92;3.53;;;11.50;99.90;;;;;;5100213;28;20169;-37
2024/01/26 05:48:18;;;;;;;5.50;4.18;;;11.50;99.90;;;;;;5099768;28;20059;-36
2024/01/26 05:50:45;;;;;;;5.10;4.40;;;11.50;99.90;;;;;;5099861;28;20030;-37
2024/01/26 05:53:11;;;;;;;4.65;4.25;;;11.50;99.90;;;;;;5099713;28;20030;-35
2024/01/26 05:55:36;;;;;;;4.13;3.72;;;11.50;99.90;;;;;;5099696;28;20058;-37
2024/01/26 05:58:03;;;;;;;4.68;3.85;;;11.50;99.90;;;;;;5099084;28;20030;-36
2024/01/26 06:00:28;;;;;;;4.10;3.50;;;11.50;99.90;;;;;;5099255;28;20745;-36
2024/01/26 06:02:54;;;;;;;5.57;3.95;;;11.50;99.90;;;;;;5098621;28;20026;-36
2024/01/26 06:05:19;;;;;;;5.22;4.72;;;11.60;99.90;;;;;;5098625;28;20043;-35
2024/01/26 06:07:45;;;;;;;7.15;6.05;;;11.50;99.90;;;;;;5099303;28;20023;-37
2024/01/26 06:10:11;;;;;;;5.68;5.18;;;11.50;99.90;;;;;;5099782;28;20032;-37
2024/01/26 06:12:40;;;;;;;6.20;4.68;;;11.50;99.90;;;;;;5098664;28;20053;-35
2024/01/26 06:15:09;;;;;;;6.10;5.50;;;11.50;99.90;;;;;;5099985;28;20478;-38
2024/01/26 06:17:35;;;;;;;6.85;6.15;;;11.50;99.90;;;;;;5099293;28;20023;-36
2024/01/26 06:20:05;;;;;;;6.07;5.30;;;11.50;99.90;;;;;;5099019;28;20031;-37
2024/01/26 06:22:30;;;;;;;6.40;5.80;;;11.50;99.90;;;;;;5099614;28;20015;-35
2024/01/26 06:25:08;;;;;;;7.32;5.85;;;11.50;99.90;;;;;;5099080;28;20785;-37
2024/01/26 06:27:34;;;;;;;7.00;6.18;;;11.40;99.90;;;;;;5098824;28;20490;-36
2024/01/26 06:30:00;;;;;;;7.18;5.70;;;11.40;99.90;;;;;;5099781;28;20035;-32
2024/01/26 06:32:25;;;;;;;6.65;5.18;;;11.40;99.90;;;;;;5098973;28;20023;-32
2024/01/26 06:34:51;;;;;;;7.78;6.95;;;11.30;99.90;;;;;;5099069;28;20085;-37
2024/01/26 06:37:16;;;;;;;7.20;6.18;;;11.30;99.90;;;;;;5078844;28;20032;-38
2024/01/26 06:39:42;;;;;;;6.25;5.50;;;11.30;99.90;;;;;;5093142;28;20024;-36
2024/01/26 06:42:07;;;;;;;6.20;5.60;;;11.30;99.90;;;;;;5099354;28;20452;-37
2024/01/26 06:44:34;;;;;;;5.40;4.90;;;11.30;99.90;;;;;;5098591;28;20040;-36
2024/01/26 06:47:00;;;;;;;6.57;5.00;;;11.30;99.90;;;;;;5098521;28;20395;-37
2024/01/26 06:49:26;;;;;;;4.78;4.38;;;11.30;99.90;;;;;;5098342;28;20016;-36
2024/01/26 06:51:52;;;;;;;5.05;4.65;;;11.30;99.90;;;;;;5099082;28;20027;-37
2024/01/26 06:54:17;;;;;;;4.50;4.10;;;11.20;99.90;;;;;;5098064;28;20016;-36
2024/01/26 06:56:43;;;;;;;5.45;4.95;;;11.30;99.90;;;;;;5099327;28;20479;-37
2024/01/26 06:59:08;;;;;;;5.13;4.63;;;11.20;99.90;;;;;;5099406;28;20016;-37
2024/01/26 07:01:34;;;;;;;5.60;5.10;;;11.20;99.90;;;;;;5097916;28;20550;-39
2024/01/26 07:03:59;;;;;;;5.10;4.60;;;11.20;99.90;;;;;;5098774;28;20027;-37
2024/01/26 07:06:25;;;;;;;5.20;4.63;;;11.30;99.90;;;;;;5099354;28;20032;-36
2024/01/26 07:08:51;;;;;;;6.55;5.50;;;11.20;99.90;;;;;;5098415;28;20020;-36
2024/01/26 07:11:18;;;;;;;4.75;4.35;;;11.20;99.90;;;;;;5098660;28;20031;-38
2024/01/26 07:13:44;;;;;;;4.90;4.40;;;11.20;99.90;;;;;;5098774;28;20058;-36
2024/01/26 07:16:09;;;;;;;4.30;3.90;;;11.20;99.90;;;;;;5101661;28;20023;-37
2024/01/26 07:18:35;;;;;;;4.82;4.35;;;11.20;99.90;;;;;;5102989;28;20765;-36
2024/01/26 07:21:06;;;;;;;4.50;4.10;;;11.20;99.90;;;;;;5102772;28;20110;-36
2024/01/26 07:23:32;;;;;;;4.82;3.97;;;11.20;99.90;;;;;;5102116;28;20030;-34
2024/01/26 07:25:57;;;;;;;4.55;4.15;;;11.30;99.90;;;;;;5101925;28;20031;-36
2024/01/26 07:28:23;;;;;;;4.95;4.55;;;11.30;99.90;;;;;;5102300;28;20024;-33
2024/01/26 07:30:49;;;;;;;4.95;4.47;;;11.30;99.90;;;;;;5102303;28;20020;-36
2024/01/26 07:33:14;;;;;;;5.20;4.70;;;11.30;99.90;;;;;;5103040;28;20061;-36
2024/01/26 07:35:40;;;;;;;4.25;3.85;;;11.30;99.90;;;;;;5102155;28;20015;-34
2024/01/26 07:38:09;;;;;;;5.55;4.90;;;11.30;99.90;;;;;;5102792;28;20386;-36
2024/01/26 07:40:34;;;;;;;5.15;4.45;;;11.30;99.90;;;;;;5102477;28;20453;-38
2024/01/26 07:43:00;;;;;;;4.82;4.43;;;11.30;99.90;;;;;;5101261;28;20374;-33
2024/01/26 07:45:25;;;;;;;5.10;4.70;;;11.30;99.90;;;;;;5102195;28;20768;-34
2024/01/26 07:47:52;;;;;;;4.38;3.97;;;11.40;99.90;;;;;;5100688;28;20371;-38
2024/01/26 07:50:17;;;;;;;4.43;4.03;;;11.40;99.90;;;;;;5100001;28;20622;-37
2024/01/26 07:52:43;;;;;;;4.82;4.35;;;11.40;99.90;;;;;;5100696;28;20475;-36
2024/01/26 07:55:09;;;;;;;5.85;4.78;;;11.40;99.90;;;;;;5100405;28;20693;-37
2024/01/26 07:57:37;;;;;;;5.60;5.10;;;11.50;99.90;;;;;;5098598;28;20123;-37
2024/01/26 08:00:04;;;;;;;5.45;4.95;;;11.50;99.90;;;;;;5100186;28;20559;-32
2024/01/26 08:02:30;;;;;;;5.82;5.22;;;11.40;99.90;;;;;;5100197;28;20080;-37
2024/01/26 08:04:56;;;;;;;6.07;5.47;;;11.50;99.90;;;;;;5100660;28;20479;-36
2024/01/26 08:07:21;;;;;;;6.20;5.60;;;11.50;99.90;;;;;;5101076;28;20954;-36
2024/01/26 08:09:47;;;;;;;7.00;6.30;;;11.50;99.90;;;;;;5102221;28;20093;-38
2024/01/26 08:12:13;;;;;;;6.35;5.75;;;11.50;99.90;;;;;;5100926;28;20019;-37
2024/01/26 08:14:38;;;;;;;6.32;5.72;;;11.50;99.90;;;;;;5101970;28;20024;-38
2024/01/26 08:17:04;;;;;;;6.00;5.50;;;11.50;99.90;;;;;;5102280;28;20016;-35
2024/01/26 08:19:29;;;;;;;6.50;5.90;;;11.50;99.90;;;;;;5101392;28;20359;-35
2024/01/26 08:21:55;;;;;;;5.82;5.32;;;11.50;99.90;;;;;;5101540;28;20043;-33
2024/01/26 08:24:20;;;;;;;6.68;5.93;;;11.50;99.90;;;;;;5101629;28;20043;-37
2024/01/26 08:26:47;;;;;;;6.72;6.13;;;11.50;99.90;;;;;;5099902;28;20475;-36
2024/01/26 08:29:12;;;;;;;6.68;6.07;;;11.50;99.90;;;;;;5101371;28;20030;-32
2024/01/26 08:31:41;;;;;;;6.28;5.68;;;11.60;99.90;;;;;;5101693;28;20051;-34
2024/01/26 08:34:07;;;;;;;6.55;5.95;;;11.60;99.90;;;;;;5101320;28;20035;-35
2024/01/26 08:36:33;;;;;;;7.03;6.32;;;11.60;99.90;;;;;;5102206;28;20024;-36
2024/01/26 08:38:58;;;;;;;6.25;5.65;;;11.60;99.90;;;;;;5100337;28;20387;-36
2024/01/26 08:41:24;;;;;;;6.10;5.60;;;11.60;99.90;;;;;;5101679;28;20023;-34
2024/01/26 08:43:49;;;;;;;6.45;5.85;;;11.60;99.90;;;;;;5101524;28;20907;-31
2024/01/26 08:46:15;;;;;;;7.20;6.53;;;11.60;99.90;;;;;;5100351;28;20403;-37
2024/01/26 08:48:40;;;;;;;7.20;6.50;;;11.60;99.90;;;;;;5101533;28;20027;-36
2024/01/26 08:51:06;;;;;;;7.68;6.97;;;11.70;99.90;;;;;;5101626;28;20063;-35
2024/01/26 08:53:35;;;;;;;8.63;7.63;;;11.70;99.90;;;;;;5100981;28;20302;-31
2024/01/26 08:56:05;;;;;;;7.78;7.03;;;11.70;99.90;;;;;;5101406;28;20134;-37
2024/01/26 08:58:30;;;;;;;7.95;6.75;;;11.80;99.90;;;;;;5101543;28;20033;-33
2024/01/26 09:00:56;;;;;;;7.63;6.82;;;11.80;99.90;;;;;;5100700;28;20118;-35
2024/01/26 09:03:21;;;;;;;8.82;7.80;;;11.80;99.90;;;;;;5101085;28;20023;-36
2024/01/26 09:05:47;;;;;;;10.23;7.82;;;11.90;99.90;;;;;;5101405;28;20034;-36
2024/01/26 09:08:12;;;;;;;7.88;7.07;;;11.90;99.90;;;;;;5100625;28;20665;-37
2024/01/26 09:10:38;;;;;;;12.90;8.07;;;11.90;99.90;;;;;;5100525;28;20584;-35
2024/01/26 09:13:04;;;;;;;7.78;6.72;;;11.90;99.90;;;;;;5100273;28;20508;-35
2024/01/26 09:15:29;;;;;;;7.30;5.70;;;11.90;99.90;;;;;;5100027;28;20038;-37
2024/01/26 09:17:55;;;;;;;7.25;6.13;;;11.80;99.90;;;;;;5100745;28;20084;-35
2024/01/26 09:20:20;;;;;;;6.47;5.32;;;11.80;99.90;;;;;;5100808;28;20554;-33
2024/01/26 09:22:46;;;;;;;7.85;5.20;;;11.80;99.90;;;;;;5100180;28;20032;-37
2024/01/26 09:25:11;;;;;;;5.63;4.20;;;11.90;99.90;;;;;;5100375;28;20944;-36
2024/01/26 09:27:38;;;;;;;5.63;3.90;;;11.80;99.90;;;;;;5100796;28;20423;-37
2024/01/26 09:30:04;;;;;;;5.32;3.55;;;11.80;99.90;;;;;;5100224;28;20553;-36
2024/01/26 09:32:29;;;;;;;3.58;2.60;;;11.80;99.90;;;;;;5101042;28;20015;-33
2024/01/26 09:34:55;;;;;;;6.22;2.65;;;11.80;99.90;;;;;;5100577;28;20068;-35
2024/01/26 09:37:21;;;;;;;3.20;1.90;;;11.70;99.90;;;;;;5099667;28;20051;-35
2024/01/26 09:39:47;;;;;;;7.32;1.73;;;11.70;99.90;;;;;;5099846;28;20577;-37
2024/01/26 09:42:12;;;;;;;2.92;1.38;;;11.60;99.90;;;;;;5099499;28;20038;-38
2024/01/26 09:44:38;;;;;;;5.75;1.60;;;11.60;99.90;;;;;;5100307;28;20082;-39
2024/01/26 09:47:10;;;;;;;6.15;1.33;;;11.50;99.90;;;;;;5100300;28;20528;-37
2024/01/26 09:49:38;;;;;;;5.63;1.40;;;11.50;99.90;;;;;;5099653;28;20084;-35
2024/01/26 09:52:08;;;;;;;5.88;1.45;;;11.40;99.90;;;;;;5096329;28;20525;-37
2024/01/26 09:54:34;;;;;;;4.38;1.30;;;11.40;99.90;;;;;;5100725;28;20036;-37
2024/01/26 09:56:59;;;;;;;6.95;1.40;;;11.20;99.90;;;;;;5098930;28;20072;-38
2024/01/26 09:59:25;;;;;;;3.65;1.00;;;11.10;99.90;;;;;;5099959;28;20023;-36
2024/01/26 10:01:51;;;;;;;5.35;1.42;;;10.90;99.90;;;;;;5099918;28;20016;-36
2024/01/26 10:04:16;;;;;;;2.10;0.80;;;10.70;99.90;;;;;;5099132;28;20042;-38
2024/01/26 10:06:44;;;;;;;3.13;0.85;;;10.50;99.90;;;;;;5099880;28;20216;-33
2024/01/26 10:09:12;;;;;;;4.47;1.05;;;10.30;99.90;;;;;;5100716;28;20319;-35
2024/01/26 10:11:38;;;;;;;2.97;0.80;;;10.20;99.90;;;;;;5099167;28;20034;-36
2024/01/26 10:14:06;;;;;;;7.30;2.90;;;10.00;99.90;;;;;;5099797;28;20043;-41
2024/01/26 10:16:32;;;;;;;2.55;0.68;;;10.00;99.90;;;;;;5099140;28;20588;-37
2024/01/26 10:18:57;;;;;;;5.43;1.42;;;9.90;99.90;;;;;;5099097;28;20142;-33
2024/01/26 10:21:23;;;;;;;4.43;0.90;;;9.90;99.90;;;;;;5099183;28;20024;-36
2024/01/26 10:23:52;;;;;;;4.57;0.93;;;9.90;99.90;;;;;;5099795;28;20418;-34
2024/01/26 10:26:17;;;;;;;2.30;0.90;;;9.90;99.90;;;;;;5098677;28;20044;-32
2024/01/26 10:28:45;;;;;;;3.15;0.93;;;10.00;99.90;;;;;;5088633;28;20031;-31
2024/01/26 10:31:13;;;;;;;3.50;1.05;;;10.00;99.90;;;;;;5099921;28;20019;-37
2024/01/26 10:33:44;;;;;;;4.32;1.20;;;10.00;99.90;;;;;;5099120;28;20038;-36
2024/01/26 10:36:13;;;;;;;4.93;1.45;;;10.00;99.90;;;;;;5099403;28;20035;-38
2024/01/26 10:38:40;;;;;;;5.65;1.40;;;10.00;99.90;;;;;;5090343;28;20059;-38
2024/01/26 10:41:06;;;;;;;4.28;1.02;;;10.00;99.90;;;;;;5098925;28;20035;-34
2024/01/26 10:43:32;;;;;;;4.13;0.98;;;10.00;99.90;;;;;;5098648;28;20038;-33
2024/01/26 10:45:59;;;;;;;7.68;1.52;;;10.00;99.90;;;;;;5098637;28;20870;-36
2024/01/26 10:48:25;;;;;;;6.75;1.52;;;10.00;99.90;;;;;;5098731;28;20044;-35
2024/01/26 10:50:52;;;;;;;4.50;1.23;;;10.00;99.90;;;;;;5102946;28;20019;-32
2024/01/26 10:53:18;;;;;;;5.53;1.30;;;10.00;99.90;;;;;;5102197;28;20742;-34
2024/01/26 10:55:48;;;;;;;7.05;1.30;;;10.10;99.90;;;;;;5103537;28;20900;-34
2024/01/26 10:58:14;;;;;;;7.35;1.77;;;10.10;99.90;;;;;;5103329;28;20031;-34
2024/01/26 11:00:39;;;;;;;8.25;1.80;;;10.20;99.90;;;;;;5103281;28;20023;-31
2024/01/26 11:03:05;;;;;;;8.15;1.40;;;10.20;99.90;;;;;;5103236;28;20697;-34
2024/01/26 11:05:31;;;;;;;4.47;1.27;;;10.20;99.90;;;;;;5103041;28;20046;-35
2024/01/26 11:08:01;;;;;;;10.18;2.03;;;10.20;99.90;;;;;;5102300;28;20047;-33
2024/01/26 11:10:28;;;;;;;7.57;1.75;;;10.20;99.90;;;;;;5103120;28;20122;-35
2024/01/26 11:13:06;;;;;;;9.10;1.88;;;10.20;99.90;;;;;;5103184;28;20948;-38
2024/01/26 11:15:34;;;;;;;6.70;1.58;;;10.20;99.90;;;;;;5102757;28;20789;-36
2024/01/26 11:18:00;;;;;;;5.60;1.63;;;10.30;99.90;;;;;;5102173;28;20904;-36
2024/01/26 11:20:30;;;;;;;7.25;1.30;;;10.30;99.90;;;;;;5103064;28;20020;-34
2024/01/26 11:23:06;;;;;;;7.07;1.75;;;10.30;99.90;;;;;;5102156;28;20592;-36
2024/01/26 11:25:40;;;;;;;5.22;1.27;;;10.30;99.90;;;;;;5102447;28;20065;-34
2024/01/26 11:28:07;;;;;;;11.75;1.73;;;10.40;99.90;;;;;;5102211;28;20028;-37
2024/01/26 11:30:34;;;;;;;7.18;1.65;;;10.40;99.90;;;;;;5102945;28;20023;-32
2024/01/26 11:33:00;;;;;;;6.80;1.38;;;10.40;99.90;;;;;;5102373;28;20544;-37
2024/01/26 11:35:26;;;;;;;4.80;1.25;;;10.50;99.90;;;;;;5102072;28;20027;-32
2024/01/26 11:37:54;;;;;;;9.75;1.60;;;10.50;99.90;;;;;;5102284;28;20387;-31
2024/01/26 11:40:21;;;;;;;7.68;1.58;;;10.60;99.90;;;;;;5102330;28;20028;-35
2024/01/26 11:42:47;;;;;;;7.65;1.77;;;10.60;99.90;;;;;;5101543;28;20573;-40
2024/01/26 11:45:39;;;;;;;9.02;1.95;;;10.60;99.90;;;;;;5102081;28;20165;-37
2024/01/26 11:48:07;;;;;;;5.78;1.70;;;10.60;99.90;;;;;;5082102;28;20062;-35
2024/01/26 11:50:33;;;;;;;8.00;1.80;;;10.70;99.90;;;;;;5099507;28;20043;-37
2024/01/26 11:52:58;;;;;;;5.00;1.38;;;10.60;99.90;;;;;;5101278;28;20023;-33
2024/01/26 11:55:25;;;;;;;6.22;2.00;;;10.60;99.90;;;;;;5101830;28;20023;-35
2024/01/26 11:57:51;;;;;;;9.48;1.90;;;10.60;99.90;;;;;;5101033;28;20470;-35
2024/01/26 12:00:18;;;;;;;7.55;1.90;;;10.50;99.90;;;;;;5100866;28;20027;-39
2024/01/26 12:02:44;;;;;;;6.45;1.63;;;10.60;99.90;;;;;;5101092;28;20030;-34
2024/01/26 12:05:16;;;;;;;9.90;1.60;;;10.50;99.90;;;;;;5100826;28;20028;-32
2024/01/26 12:07:41;;;;;;;6.85;1.42;;;10.60;99.90;;;;;;5102509;28;20051;-38
2024/01/26 12:10:12;;;;;;;9.15;3.03;;;10.60;99.90;;;;;;5101181;28;20565;-35
2024/01/26 12:12:41;;;;;;;7.32;1.90;;;10.60;99.90;;;;;;5101781;28;20074;-34
2024/01/26 12:15:10;;;;;;;8.52;1.77;;;10.60;99.90;;;;;;5102043;28;20030;-36
2024/01/26 12:17:36;;;;;;;9.07;2.00;;;10.60;99.90;;;;;;5101572;28;20034;-33
2024/01/26 12:20:08;;;;;;;12.80;2.45;;;10.50;99.90;;;;;;5101757;28;20027;-34
2024/01/26 12:22:34;;;;;;;9.63;2.05;;;10.50;99.90;;;;;;5091409;28;20042;-36
2024/01/26 12:25:04;;;;;;;9.90;2.08;;;10.40;99.90;;;;;;5101246;28;20039;-34
2024/01/26 12:27:30;;;;;;;8.15;2.20;;;10.50;99.90;;;;;;5101783;28;20015;-38
2024/01/26 12:29:56;;;;;;;7.55;1.80;;;10.40;99.90;;;;;;5101216;28;20066;-37
2024/01/26 12:32:21;;;;;;;6.68;1.70;;;10.40;99.90;;;;;;5100272;28;20027;-37
2024/01/26 12:34:47;;;;;;;8.52;2.30;;;10.40;99.90;;;;;;5101761;28;20063;-37
2024/01/26 12:37:15;;;;;;;6.47;2.03;;;10.30;99.90;;;;;;5100977;28;20092;-36
2024/01/26 12:39:41;;;;;;;11.95;2.03;;;10.40;99.90;;;;;;5100831;28;20028;-36